createdAt,value
2017-08-25T00:02:04.288Z,1.60
2017-08-25T00:05:08.087Z,5.40
2017-08-25T00:08:17.987Z,3.40
2017-08-25T00:11:15.994Z,1.83
2017-08-25T00:14:13.908Z,2.70
2017-08-25T00:17:23.815Z,3.67
2017-08-25T00:20:21.388Z,2.73
2017-08-25T00:23:24.355Z,1.97
2017-08-25T00:26:25.945Z,2.37
2017-08-25T00:29:28.602Z,4.43
2017-08-25T00:32:26.428Z,4.00
2017-08-25T00:35:24.311Z,4.83
2017-08-25T00:38:32.864Z,3.30
2017-08-25T00:41:30.475Z,5.03
2017-08-25T00:44:29.339Z,3.47
2017-08-25T00:47:29.162Z,5.43
2017-08-25T00:53:52.797Z,10.27
2017-08-25T00:56:50.520Z,2.07
2017-08-25T01:00:03.584Z,2.03
2017-08-25T01:06:26.505Z,5.83
2017-08-25T01:09:25.180Z,2.80
2017-08-25T01:12:25.764Z,3.17
2017-08-25T01:15:24.904Z,4.93
2017-08-25T01:18:26.466Z,3.13
2017-08-25T01:24:56.979Z,3.30
2017-08-25T01:27:57.506Z,3.50
2017-08-25T01:31:00.074Z,6.07
2017-08-25T01:34:12.791Z,5.17
2017-08-25T01:37:13.429Z,1.93
2017-08-25T01:40:11.201Z,3.33
2017-08-25T01:43:14.963Z,2.10
2017-08-25T01:46:12.687Z,4.50
2017-08-25T01:49:10.415Z,3.07
2017-08-25T01:52:19.107Z,5.63
2017-08-25T01:55:36.925Z,3.97
2017-08-25T01:58:35.364Z,3.20
2017-08-25T02:01:36.230Z,2.37
2017-08-25T02:04:36.904Z,1.80
2017-08-25T02:07:36.423Z,5.70
2017-08-25T02:10:39.947Z,2.60
2017-08-25T02:13:43.639Z,4.27
2017-08-25T02:17:03.438Z,1.50
2017-08-25T02:20:01.016Z,1.80
2017-08-25T02:22:58.572Z,1.73
2017-08-25T02:26:16.333Z,2.80
2017-08-25T02:29:16.098Z,4.57
2017-08-25T02:32:19.742Z,4.40
2017-08-25T02:35:17.430Z,3.27
2017-08-25T02:38:21.551Z,2.20
2017-08-25T02:41:19.926Z,2.30
2017-08-25T02:44:17.667Z,3.03
2017-08-25T02:47:18.323Z,2.50
2017-08-25T02:50:15.958Z,4.27
2017-08-25T02:53:19.670Z,1.87
2017-08-25T02:56:23.440Z,2.17
2017-08-25T03:02:51.572Z,2.93
2017-08-25T03:05:55.278Z,3.20
2017-08-25T03:09:12.144Z,3.80
2017-08-25T03:12:12.583Z,3.30
2017-08-25T03:15:29.143Z,2.27
2017-08-25T03:18:28.798Z,2.43
2017-08-25T03:21:26.436Z,9.53
2017-08-25T03:24:37.169Z,4.20
2017-08-25T03:27:50.813Z,3.73
2017-08-25T03:30:48.361Z,1.57
2017-08-25T03:33:46.136Z,2.13
2017-08-25T03:36:46.816Z,4.50
2017-08-25T03:39:45.463Z,2.17
2017-08-25T03:42:43.956Z,5.17
2017-08-25T03:45:49.467Z,3.20
2017-08-25T03:48:51.198Z,2.70
2017-08-25T03:51:48.695Z,2.93
2017-08-25T03:54:47.364Z,2.10
2017-08-25T03:57:49.920Z,7.60
2017-08-25T04:00:47.666Z,3.67
2017-08-25T04:03:52.130Z,7.07
2017-08-25T04:06:51.746Z,3.07
2017-08-25T04:09:49.252Z,2.80
2017-08-25T04:12:48.714Z,6.00
2017-08-25T04:15:46.319Z,2.13
2017-08-25T04:19:03.980Z,3.33
2017-08-25T04:22:04.663Z,2.83
2017-08-25T04:25:08.299Z,4.83
2017-08-25T04:28:11.764Z,3.23
2017-08-25T04:31:14.291Z,2.50
2017-08-25T04:34:13.827Z,1.50
2017-08-25T04:37:19.613Z,2.63
2017-08-25T04:40:17.128Z,2.40
2017-08-25T04:43:17.604Z,2.70
2017-08-25T04:46:24.386Z,3.17
2017-08-25T04:49:22.086Z,2.40
2017-08-25T04:52:28.944Z,1.60
2017-08-25T04:55:32.745Z,4.17
2017-08-25T04:58:31.459Z,3.00
2017-08-25T05:01:28.759Z,2.27
2017-08-25T05:04:27.902Z,2.20
2017-08-25T05:07:25.029Z,3.27
2017-08-25T05:10:22.458Z,3.33
2017-08-25T05:13:24.230Z,2.57
2017-08-25T05:16:22.889Z,8.87
2017-08-25T05:19:37.542Z,1.70
2017-08-25T05:22:53.355Z,2.47
2017-08-25T05:25:54.750Z,1.63
2017-08-25T05:32:19.116Z,5.00
2017-08-25T05:35:16.872Z,8.23
2017-08-25T05:38:14.786Z,2.27
2017-08-25T05:41:12.342Z,3.27
2017-08-25T05:44:10.027Z,3.73
2017-08-25T05:47:08.626Z,4.60
2017-08-25T05:50:06.319Z,2.93
2017-08-25T05:53:04.095Z,9.87
2017-08-25T05:56:07.715Z,8.40
2017-08-25T05:59:05.426Z,7.53
2017-08-25T06:02:02.937Z,7.07
2017-08-25T06:05:00.423Z,6.93
2017-08-25T06:07:59.012Z,7.77
2017-08-25T06:11:01.653Z,5.07
2017-08-25T06:13:59.420Z,7.10
2017-08-25T06:17:03.248Z,3.77
2017-08-25T06:20:00.727Z,8.73
2017-08-25T06:23:00.653Z,5.27
2017-08-25T06:26:01.119Z,11.10
2017-08-25T06:28:58.899Z,4.03
2017-08-25T06:31:59.654Z,6.03
2017-08-25T06:34:57.275Z,5.47
2017-08-25T06:38:08.083Z,5.03
2017-08-25T06:41:06.897Z,4.40
2017-08-25T06:44:15.792Z,6.00
2017-08-25T06:47:13.828Z,7.17
2017-08-25T06:50:11.688Z,6.80
2017-08-25T06:53:28.624Z,5.10
2017-08-25T06:56:27.374Z,5.70
2017-08-25T06:59:27.035Z,6.60
2017-08-25T07:02:33.865Z,6.43
2017-08-25T07:05:33.391Z,6.27
2017-08-25T07:08:30.898Z,13.57
2017-08-25T07:11:40.396Z,6.20
2017-08-25T07:14:41.950Z,8.10
2017-08-25T07:17:39.568Z,8.83
2017-08-25T07:20:37.550Z,7.27
2017-08-25T07:23:36.391Z,6.00
2017-08-25T07:26:44.172Z,8.70
2017-08-25T07:29:48.047Z,5.93
2017-08-25T07:32:51.841Z,6.60
2017-08-25T07:39:11.564Z,6.33
2017-08-25T07:42:19.139Z,2.97
2017-08-25T07:45:17.833Z,6.57
2017-08-25T07:48:17.292Z,4.33
2017-08-25T07:51:25.219Z,5.43
2017-08-25T07:54:27.790Z,4.83
2017-08-25T07:57:27.587Z,5.03
2017-08-25T08:00:25.136Z,6.83
2017-08-25T08:03:31.951Z,5.27
2017-08-25T08:06:39.534Z,14.70
2017-08-25T08:09:38.177Z,9.60
2017-08-25T08:12:36.791Z,5.33
2017-08-25T08:15:46.529Z,7.50
2017-08-25T08:18:47.102Z,5.97
2017-08-25T08:21:45.677Z,4.27
2017-08-25T08:24:49.266Z,3.33
2017-08-25T08:27:52.834Z,6.40
2017-08-25T08:30:50.273Z,7.43
2017-08-25T08:33:54.038Z,6.03
2017-08-25T08:36:53.571Z,3.37
2017-08-25T08:39:51.171Z,5.87
2017-08-25T08:42:52.690Z,4.57
2017-08-25T08:45:56.426Z,6.37
2017-08-25T08:48:53.970Z,5.63
2017-08-25T08:51:51.614Z,7.93
2017-08-25T08:54:53.993Z,4.40
2017-08-25T08:57:54.656Z,4.27
2017-08-25T09:00:59.139Z,4.20
2017-08-25T09:03:56.692Z,3.60
2017-08-25T09:06:57.590Z,6.33
2017-08-25T09:09:59.230Z,3.23
2017-08-25T09:13:05.268Z,3.97
2017-08-25T09:16:04.844Z,6.10
2017-08-25T09:19:12.729Z,5.90
2017-08-25T09:22:19.486Z,10.40
2017-08-25T09:25:16.951Z,7.10
2017-08-25T09:28:17.507Z,4.43
2017-08-25T09:31:21.492Z,8.40
2017-08-25T09:34:18.766Z,9.67
2017-08-25T09:37:16.396Z,8.90
2017-08-25T09:40:14.026Z,5.30
2017-08-25T09:43:11.502Z,4.23
2017-08-25T09:46:08.990Z,8.90
2017-08-25T09:49:06.940Z,12.83
2017-08-25T09:52:04.584Z,6.80
2017-08-25T09:55:15.208Z,5.83
2017-08-25T09:58:12.863Z,5.70
2017-08-25T10:01:15.713Z,7.50
2017-08-25T10:04:16.397Z,10.73
2017-08-25T10:07:16.963Z,6.27
2017-08-25T10:10:21.572Z,5.30
2017-08-25T10:13:30.127Z,4.73
2017-08-25T10:16:27.536Z,5.80
2017-08-25T10:19:25.056Z,6.30
2017-08-25T10:22:22.648Z,5.37
2017-08-25T10:25:20.026Z,9.97
2017-08-25T10:28:17.682Z,5.57
2017-08-25T10:31:24.281Z,5.60
2017-08-25T10:34:27.901Z,7.30
2017-08-25T10:37:38.769Z,7.77
2017-08-25T10:40:48.191Z,6.37
2017-08-25T10:43:57.950Z,6.93
2017-08-25T10:46:56.478Z,6.70
2017-08-25T10:49:53.823Z,5.67
2017-08-25T10:52:52.538Z,5.63
2017-08-25T10:55:51.331Z,6.93
2017-08-25T10:58:58.421Z,8.33
2017-08-25T11:01:59.238Z,10.70
2017-08-25T11:04:57.170Z,5.63
2017-08-25T11:08:05.012Z,6.60
2017-08-25T11:11:04.691Z,6.43
2017-08-25T11:14:07.458Z,8.63
2017-08-25T11:17:14.526Z,6.87
2017-08-25T11:20:14.320Z,10.67
2017-08-25T11:23:19.141Z,7.57
2017-08-25T11:26:22.828Z,6.07
2017-08-25T11:29:21.362Z,8.97
2017-08-25T11:32:21.110Z,6.83
2017-08-25T11:35:18.647Z,10.70
2017-08-25T11:38:16.415Z,6.03
2017-08-25T11:41:14.114Z,8.77
2017-08-25T11:44:13.783Z,7.73
2017-08-25T11:47:11.592Z,6.63
2017-08-25T11:50:09.458Z,11.40
2017-08-25T11:53:19.128Z,7.73
2017-08-25T11:56:18.799Z,7.07
2017-08-25T11:59:21.451Z,9.60
2017-08-25T12:02:22.034Z,6.73
2017-08-25T12:05:19.607Z,9.00
2017-08-25T12:11:40.644Z,8.57
2017-08-25T12:14:41.505Z,7.20
2017-08-25T12:17:39.231Z,7.30
2017-08-25T12:20:36.850Z,8.60
2017-08-25T12:23:35.488Z,7.80
2017-08-25T12:26:32.902Z,9.50
2017-08-25T12:29:30.344Z,6.07
2017-08-25T12:32:27.998Z,6.40
2017-08-25T12:35:25.719Z,7.13
2017-08-25T12:38:23.467Z,7.30
2017-08-25T12:41:22.135Z,5.93
2017-08-25T12:44:19.854Z,10.10
2017-08-25T12:47:17.698Z,7.83
2017-08-25T12:50:15.291Z,6.80
2017-08-25T12:53:19.048Z,9.00
2017-08-25T12:56:17.519Z,9.93
2017-08-25T12:59:21.418Z,9.67
2017-08-25T13:02:21.990Z,12.73
2017-08-25T13:05:20.475Z,7.73
2017-08-25T13:08:18.064Z,7.10
2017-08-25T13:11:15.517Z,6.87
2017-08-25T13:14:13.265Z,9.13
2017-08-25T13:17:10.948Z,7.50
2017-08-25T13:20:08.306Z,8.10
2017-08-25T13:23:06.926Z,8.57
2017-08-25T13:26:06.620Z,8.10
2017-08-25T13:29:06.391Z,5.50
2017-08-25T13:32:05.099Z,8.57
2017-08-25T13:35:02.624Z,9.10
2017-08-25T13:38:00.180Z,5.60
2017-08-25T13:40:58.774Z,11.33
2017-08-25T13:43:56.194Z,10.70
2017-08-25T13:46:59.767Z,11.87
2017-08-25T13:50:00.672Z,12.20
2017-08-25T13:52:59.219Z,7.47
2017-08-25T13:55:57.161Z,8.03
2017-08-25T13:58:54.687Z,11.60
2017-08-25T14:01:52.269Z,11.20
2017-08-25T14:04:51.024Z,12.00
2017-08-25T14:07:48.749Z,6.60
2017-08-25T14:10:46.347Z,9.20
2017-08-25T14:13:45.111Z,8.43
2017-08-25T14:16:47.345Z,7.00
2017-08-25T14:19:44.394Z,7.57
2017-08-25T14:22:44.201Z,8.27
2017-08-25T14:25:54.216Z,17.67
2017-08-25T14:28:52.901Z,12.80
2017-08-25T14:31:51.895Z,9.93
2017-08-25T14:34:49.482Z,9.53
2017-08-25T14:37:47.403Z,7.07
2017-08-25T14:40:48.401Z,5.90
2017-08-25T14:43:46.077Z,7.43
2017-08-25T14:46:44.840Z,5.73
2017-08-25T14:49:42.486Z,7.07
2017-08-25T14:52:40.345Z,10.63
2017-08-25T14:55:42.988Z,6.70
2017-08-25T14:58:49.687Z,9.67
2017-08-25T15:01:50.397Z,8.80
2017-08-25T15:04:51.381Z,8.57
2017-08-25T15:07:49.118Z,7.30
2017-08-25T15:10:52.628Z,10.87
2017-08-25T15:13:58.327Z,6.03
2017-08-25T15:16:56.836Z,5.97
2017-08-25T15:19:55.448Z,6.10
2017-08-25T15:22:53.063Z,5.30
2017-08-25T15:25:52.973Z,6.63
2017-08-25T15:28:50.610Z,15.63
2017-08-25T15:31:54.003Z,11.33
2017-08-25T15:34:51.547Z,6.77
2017-08-25T15:37:52.260Z,6.20
2017-08-25T15:40:51.839Z,8.90
2017-08-25T15:43:50.380Z,6.23
2017-08-25T15:46:53.935Z,6.60
2017-08-25T15:49:51.685Z,7.37
2017-08-25T15:52:50.213Z,8.70
2017-08-25T15:55:50.971Z,6.30
2017-08-25T15:58:48.545Z,9.97
2017-08-25T16:01:46.172Z,7.00
2017-08-25T16:04:43.583Z,7.37
2017-08-25T16:07:41.402Z,7.40
2017-08-25T16:10:39.335Z,8.40
2017-08-25T16:13:38.054Z,8.60
2017-08-25T16:16:43.794Z,7.77
2017-08-25T16:19:41.671Z,8.13
2017-08-25T16:22:40.119Z,5.80
2017-08-25T16:25:38.824Z,6.57
2017-08-25T16:28:36.717Z,9.47
2017-08-25T16:31:34.244Z,8.17
2017-08-25T16:34:31.887Z,14.20
2017-08-25T16:37:30.490Z,8.10
2017-08-25T16:40:28.211Z,12.93
2017-08-25T16:43:27.937Z,10.60
2017-08-25T16:46:27.460Z,8.63
2017-08-25T16:49:28.171Z,9.10
2017-08-25T16:52:31.642Z,8.70
2017-08-25T16:55:31.531Z,16.63
2017-08-25T16:58:29.350Z,15.93
2017-08-25T17:01:26.854Z,7.53
2017-08-25T17:04:25.582Z,10.53
2017-08-25T17:07:26.346Z,14.13
2017-08-25T17:10:28.035Z,18.27
2017-08-25T17:13:27.614Z,25.73
2017-08-25T17:16:28.319Z,8.93
2017-08-25T17:19:28.879Z,7.80
2017-08-25T17:22:28.459Z,11.50
2017-08-25T17:25:26.206Z,15.57
2017-08-25T17:28:26.723Z,12.50
2017-08-25T17:31:26.283Z,10.90
2017-08-25T17:34:23.877Z,12.20
2017-08-25T17:37:21.551Z,9.97
2017-08-25T17:40:21.010Z,12.87
2017-08-25T17:43:25.632Z,14.37
2017-08-25T17:46:23.279Z,12.40
2017-08-25T17:49:25.043Z,7.50
2017-08-25T17:52:34.897Z,8.60
2017-08-25T17:58:59.726Z,7.13
2017-08-25T18:01:57.327Z,4.20
2017-08-25T18:04:56.912Z,6.17
2017-08-25T18:07:54.674Z,10.23
2017-08-25T18:10:52.348Z,3.80
2017-08-25T18:13:49.756Z,5.90
2017-08-25T18:16:47.520Z,3.83
2017-08-25T18:19:45.164Z,3.47
2017-08-25T18:22:42.892Z,3.37
2017-08-25T18:25:44.718Z,2.57
2017-08-25T18:28:45.417Z,4.90
2017-08-25T18:31:42.775Z,4.10
2017-08-25T18:34:40.388Z,2.23
2017-08-25T18:37:38.295Z,4.83
2017-08-25T18:40:35.974Z,3.57
2017-08-25T18:43:35.851Z,6.13
2017-08-25T18:46:41.627Z,3.23
2017-08-25T18:49:41.785Z,5.83
2017-08-25T18:52:39.638Z,5.33
2017-08-25T18:55:37.363Z,7.63
2017-08-25T18:58:40.972Z,4.97
2017-08-25T19:01:38.608Z,3.50
2017-08-25T19:04:36.171Z,4.87
2017-08-25T19:07:38.003Z,5.23
2017-08-25T19:10:35.752Z,5.40
2017-08-25T19:13:33.470Z,4.30
2017-08-25T19:16:32.202Z,4.43
2017-08-25T19:19:36.028Z,6.83
2017-08-25T19:22:33.874Z,2.73
2017-08-25T19:25:46.598Z,9.00
2017-08-25T19:28:44.198Z,3.00
2017-08-25T19:31:48.014Z,5.50
2017-08-25T19:34:45.662Z,8.90
2017-08-25T19:37:43.376Z,3.07
2017-08-25T19:40:45.941Z,3.83
2017-08-25T19:43:46.530Z,3.40
2017-08-25T19:46:44.948Z,4.43
2017-08-25T19:49:42.427Z,4.90
2017-08-25T19:52:42.895Z,7.10
2017-08-25T19:55:43.856Z,2.43
2017-08-25T19:58:47.836Z,3.17
2017-08-25T20:01:45.614Z,4.77
2017-08-25T20:04:43.287Z,3.40
2017-08-25T20:07:48.062Z,4.67
2017-08-25T20:10:48.782Z,6.13
2017-08-25T20:13:49.448Z,4.90
2017-08-25T20:16:47.191Z,6.93
2017-08-25T20:19:44.623Z,7.33
2017-08-25T20:22:42.282Z,4.13
2017-08-25T20:25:44.987Z,4.30
2017-08-25T20:28:42.566Z,4.60
2017-08-25T20:31:40.686Z,3.50
2017-08-25T20:34:41.405Z,2.90
2017-08-25T20:37:38.976Z,5.17
2017-08-25T20:40:40.609Z,3.40
2017-08-25T20:43:38.240Z,4.73
2017-08-25T20:46:35.890Z,3.03
2017-08-25T20:49:33.798Z,5.20
2017-08-25T20:52:31.308Z,3.73
2017-08-25T20:55:32.878Z,4.03
2017-08-25T20:58:30.596Z,3.37
2017-08-25T21:01:31.387Z,6.30
2017-08-25T21:04:30.165Z,4.00
2017-08-25T21:07:30.028Z,3.60
2017-08-25T21:10:30.691Z,4.20
2017-08-25T21:13:29.342Z,8.07
2017-08-25T21:16:28.329Z,3.40
2017-08-25T21:19:26.098Z,3.73
2017-08-25T21:22:23.795Z,3.80
2017-08-25T21:25:26.433Z,7.37
2017-08-25T21:28:24.244Z,4.97
2017-08-25T21:31:40.931Z,4.97
2017-08-25T21:34:41.455Z,5.93
2017-08-25T21:37:39.983Z,4.63
2017-08-25T21:40:37.635Z,4.00
2017-08-25T21:43:38.292Z,3.70
2017-08-25T21:46:35.934Z,3.17
2017-08-25T21:49:42.612Z,5.83
2017-08-25T21:52:40.605Z,3.50
2017-08-25T21:55:41.299Z,3.87
2017-08-25T21:58:44.834Z,4.03
2017-08-25T22:01:43.310Z,3.33
2017-08-25T22:04:40.991Z,9.97
2017-08-25T22:07:38.694Z,3.40
2017-08-25T22:10:36.423Z,2.43
2017-08-25T22:13:43.951Z,2.60
2017-08-25T22:16:42.507Z,3.00
2017-08-25T22:19:41.174Z,2.90
2017-08-25T22:22:38.915Z,3.40
2017-08-25T22:25:39.747Z,3.87
2017-08-25T22:28:43.552Z,3.60
2017-08-25T22:31:41.163Z,2.80
2017-08-25T22:34:38.823Z,5.63
2017-08-25T22:37:42.425Z,3.40
2017-08-25T22:40:40.226Z,3.03
2017-08-25T22:43:38.789Z,2.97
2017-08-25T22:46:40.526Z,3.20
2017-08-25T22:49:41.126Z,3.33
2017-08-25T22:52:39.846Z,3.40
2017-08-25T22:55:37.143Z,7.03
2017-08-25T22:58:43.720Z,3.50
2017-08-25T23:01:41.386Z,4.10
2017-08-25T23:04:41.286Z,5.03
2017-08-25T23:07:45.005Z,4.53
2017-08-25T23:10:48.703Z,3.90
2017-08-25T23:13:47.248Z,4.83
2017-08-25T23:16:47.604Z,3.70
2017-08-25T23:19:45.042Z,5.37
2017-08-25T23:22:45.778Z,4.90
2017-08-25T23:25:46.758Z,3.80
2017-08-25T23:28:44.639Z,4.57
2017-08-25T23:31:42.294Z,4.87
2017-08-25T23:34:40.021Z,6.07
2017-08-25T23:37:37.927Z,6.20
2017-08-25T23:40:36.602Z,4.57
2017-08-25T23:43:34.220Z,7.47
2017-08-25T23:46:33.887Z,4.50
2017-08-25T23:49:32.551Z,5.27
2017-08-25T23:52:30.256Z,4.10
2017-08-25T23:55:39.923Z,5.00
2017-08-25T23:58:38.588Z,5.50
